sensor_id;sensor_type;location;lat;lon;timestamp;pressure;altitude;pressure_sealevel;temperature;humidity
62632;BME280;48703;51.248;-0.546;2022-10-16T00:01:40;100024;;;11.34;83.90
62632;BME280;48703;51.248;-0.546;2022-10-16T00:04:42;100022;;;11.33;83.88
62632;BME280;48703;51.248;-0.546;2022-10-16T00:07:43;100020;;;11.27;83.83
62632;BME280;48703;51.248;-0.546;2022-10-16T00:10:45;100014;;;11.17;84.08
62632;BME280;48703;51.248;-0.546;2022-10-16T00:13:48;100014;;;11.09;83.91
62632;BME280;48703;51.248;-0.546;2022-10-16T00:16:49;100015;;;11.05;84.09
62632;BME280;48703;51.248;-0.546;2022-10-16T00:19:51;100014;;;10.98;83.94
62632;BME280;48703;51.248;-0.546;2022-10-16T00:22:53;100019;;;10.94;84.03
62632;BME280;48703;51.248;-0.546;2022-10-16T00:25:55;100023;;;10.90;84.10
62632;BME280;48703;51.248;-0.546;2022-10-16T00:28:57;100030;;;10.92;84.24
62632;BME280;48703;51.248;-0.546;2022-10-16T00:31:58;100033;;;10.91;84.35
62632;BME280;48703;51.248;-0.546;2022-10-16T00:35:00;100028;;;10.86;83.99
62632;BME280;48703;51.248;-0.546;2022-10-16T00:38:02;100031;;;10.80;84.28
62632;BME280;48703;51.248;-0.546;2022-10-16T00:41:04;100028;;;10.79;84.22
62632;BME280;48703;51.248;-0.546;2022-10-16T00:44:41;100027;;;10.78;84.45
62632;BME280;48703;51.248;-0.546;2022-10-16T00:47:08;100031;;;10.76;84.53
62632;BME280;48703;51.248;-0.546;2022-10-16T00:50:11;100032;;;10.75;84.50
62632;BME280;48703;51.248;-0.546;2022-10-16T00:53:11;100038;;;10.74;84.52
62632;BME280;48703;51.248;-0.546;2022-10-16T00:56:14;100042;;;10.77;84.52
62632;BME280;48703;51.248;-0.546;2022-10-16T00:59:16;100046;;;10.79;84.41
62632;BME280;48703;51.248;-0.546;2022-10-16T01:02:17;100046;;;10.79;84.38
62632;BME280;48703;51.248;-0.546;2022-10-16T01:05:19;100044;;;10.78;84.57
62632;BME280;48703;51.248;-0.546;2022-10-16T01:08:22;100044;;;10.77;84.54
62632;BME280;48703;51.248;-0.546;2022-10-16T01:11:24;100047;;;10.77;84.53
62632;BME280;48703;51.248;-0.546;2022-10-16T01:14:27;100053;;;10.76;84.54
62632;BME280;48703;51.248;-0.546;2022-10-16T01:17:28;100050;;;10.75;84.70
62632;BME280;48703;51.248;-0.546;2022-10-16T01:20:29;100053;;;10.76;84.80
62632;BME280;48703;51.248;-0.546;2022-10-16T01:23:35;100053;;;10.77;84.85
62632;BME280;48703;51.248;-0.546;2022-10-16T01:26:36;100054;;;10.78;85.10
62632;BME280;48703;51.248;-0.546;2022-10-16T01:29:34;100059;;;10.80;85.24
62632;BME280;48703;51.248;-0.546;2022-10-16T01:32:36;100064;;;10.84;85.42
62632;BME280;48703;51.248;-0.546;2022-10-16T01:35:38;100072;;;10.89;85.20
62632;BME280;48703;51.248;-0.546;2022-10-16T01:38:39;100061;;;10.91;85.22
62632;BME280;48703;51.248;-0.546;2022-10-16T01:41:43;100056;;;10.93;85.84
62632;BME280;48703;51.248;-0.546;2022-10-16T01:44:43;100055;;;10.94;86.04
62632;BME280;48703;51.248;-0.546;2022-10-16T01:47:45;100067;;;10.95;86.14
62632;BME280;48703;51.248;-0.546;2022-10-16T01:50:50;100073;;;10.95;85.87
62632;BME280;48703;51.248;-0.546;2022-10-16T01:53:49;100068;;;10.95;85.83
62632;BME280;48703;51.248;-0.546;2022-10-16T01:56:50;100070;;;10.93;85.99
62632;BME280;48703;51.248;-0.546;2022-10-16T01:59:53;100069;;;10.93;85.89
62632;BME280;48703;51.248;-0.546;2022-10-16T02:02:54;100074;;;10.93;85.92
62632;BME280;48703;51.248;-0.546;2022-10-16T02:05:56;100078;;;10.92;85.85
62632;BME280;48703;51.248;-0.546;2022-10-16T02:08:58;100083;;;10.90;85.72
62632;BME280;48703;51.248;-0.546;2022-10-16T02:12:01;100080;;;10.89;85.47
62632;BME280;48703;51.248;-0.546;2022-10-16T02:15:02;100074;;;10.88;85.01
62632;BME280;48703;51.248;-0.546;2022-10-16T02:18:04;100079;;;10.88;84.65
62632;BME280;48703;51.248;-0.546;2022-10-16T02:21:07;100086;;;10.86;84.37
62632;BME280;48703;51.248;-0.546;2022-10-16T02:24:08;100086;;;10.86;84.12
62632;BME280;48703;51.248;-0.546;2022-10-16T02:27:10;100090;;;10.86;83.77
62632;BME280;48703;51.248;-0.546;2022-10-16T02:30:12;100098;;;10.86;83.44
62632;BME280;48703;51.248;-0.546;2022-10-16T02:33:13;100101;;;10.85;83.34
62632;BME280;48703;51.248;-0.546;2022-10-16T02:36:15;100103;;;10.84;83.15
62632;BME280;48703;51.248;-0.546;2022-10-16T02:39:16;100107;;;10.83;83.20
62632;BME280;48703;51.248;-0.546;2022-10-16T02:42:18;100109;;;10.82;82.85
62632;BME280;48703;51.248;-0.546;2022-10-16T02:45:22;100113;;;10.81;83.06
62632;BME280;48703;51.248;-0.546;2022-10-16T02:48:22;100114;;;10.79;83.02
62632;BME280;48703;51.248;-0.546;2022-10-16T02:51:24;100116;;;10.77;83.11
62632;BME280;48703;51.248;-0.546;2022-10-16T02:54:26;100118;;;10.76;83.15
62632;BME280;48703;51.248;-0.546;2022-10-16T02:57:28;100124;;;10.75;83.21
62632;BME280;48703;51.248;-0.546;2022-10-16T03:00:29;100128;;;10.74;83.25
62632;BME280;48703;51.248;-0.546;2022-10-16T03:03:32;100129;;;10.72;83.38
62632;BME280;48703;51.248;-0.546;2022-10-16T03:06:33;100131;;;10.70;83.45
62632;BME280;48703;51.248;-0.546;2022-10-16T03:09:35;100129;;;10.69;83.43
62632;BME280;48703;51.248;-0.546;2022-10-16T03:12:37;100130;;;10.67;83.53
62632;BME280;48703;51.248;-0.546;2022-10-16T03:15:39;100133;;;10.65;83.50
62632;BME280;48703;51.248;-0.546;2022-10-16T03:18:41;100128;;;10.63;83.59
62632;BME280;48703;51.248;-0.546;2022-10-16T03:21:42;100129;;;10.61;83.66
62632;BME280;48703;51.248;-0.546;2022-10-16T03:24:44;100138;;;10.59;83.60
62632;BME280;48703;51.248;-0.546;2022-10-16T03:27:46;100139;;;10.58;83.65
62632;BME280;48703;51.248;-0.546;2022-10-16T03:30:48;100140;;;10.58;83.68
62632;BME280;48703;51.248;-0.546;2022-10-16T03:33:50;100143;;;10.57;83.74
62632;BME280;48703;51.248;-0.546;2022-10-16T03:36:52;100149;;;10.57;83.85
62632;BME280;48703;51.248;-0.546;2022-10-16T03:39:54;100150;;;10.56;83.95
62632;BME280;48703;51.248;-0.546;2022-10-16T03:42:55;100149;;;10.55;84.01
62632;BME280;48703;51.248;-0.546;2022-10-16T03:45:57;100156;;;10.54;84.04
62632;BME280;48703;51.248;-0.546;2022-10-16T03:48:59;100160;;;10.55;84.07
62632;BME280;48703;51.248;-0.546;2022-10-16T03:52:01;100168;;;10.54;84.10
62632;BME280;48703;51.248;-0.546;2022-10-16T03:55:03;100171;;;10.54;84.20
62632;BME280;48703;51.248;-0.546;2022-10-16T03:58:05;100173;;;10.54;84.19
62632;BME280;48703;51.248;-0.546;2022-10-16T04:01:07;100179;;;10.53;84.27
62632;BME280;48703;51.248;-0.546;2022-10-16T04:04:08;100186;;;10.52;84.17
62632;BME280;48703;51.248;-0.546;2022-10-16T04:07:11;100191;;;10.52;84.25
62632;BME280;48703;51.248;-0.546;2022-10-16T04:10:12;100193;;;10.51;84.33
62632;BME280;48703;51.248;-0.546;2022-10-16T04:13:14;100196;;;10.50;84.36
62632;BME280;48703;51.248;-0.546;2022-10-16T04:16:16;100198;;;10.49;84.44
62632;BME280;48703;51.248;-0.546;2022-10-16T04:19:18;100203;;;10.48;84.50
62632;BME280;48703;51.248;-0.546;2022-10-16T04:22:20;100211;;;10.47;84.40
62632;BME280;48703;51.248;-0.546;2022-10-16T04:25:21;100216;;;10.46;84.40
62632;BME280;48703;51.248;-0.546;2022-10-16T04:28:23;100222;;;10.45;84.35
62632;BME280;48703;51.248;-0.546;2022-10-16T04:31:25;100226;;;10.43;84.32
62632;BME280;48703;51.248;-0.546;2022-10-16T04:34:27;100234;;;10.42;84.17
62632;BME280;48703;51.248;-0.546;2022-10-16T04:37:29;100240;;;10.42;84.08
62632;BME280;48703;51.248;-0.546;2022-10-16T04:40:31;100244;;;10.41;83.91
62632;BME280;48703;51.248;-0.546;2022-10-16T04:43:33;100246;;;10.41;83.76
62632;BME280;48703;51.248;-0.546;2022-10-16T04:46:34;100252;;;10.40;83.56
62632;BME280;48703;51.248;-0.546;2022-10-16T04:49:36;100258;;;10.40;83.33
62632;BME280;48703;51.248;-0.546;2022-10-16T04:52:38;100266;;;10.40;83.21
62632;BME280;48703;51.248;-0.546;2022-10-16T04:55:40;100276;;;10.39;82.99
62632;BME280;48703;51.248;-0.546;2022-10-16T04:58:42;100287;;;10.38;83.07
62632;BME280;48703;51.248;-0.546;2022-10-16T05:01:44;100301;;;10.37;82.91
62632;BME280;48703;51.248;-0.546;2022-10-16T05:04:46;100311;;;10.35;82.81
62632;BME280;48703;51.248;-0.546;2022-10-16T05:07:47;100315;;;10.34;82.78
62632;BME280;48703;51.248;-0.546;2022-10-16T05:10:49;100321;;;10.31;83.22
62632;BME280;48703;51.248;-0.546;2022-10-16T05:13:51;100328;;;10.28;83.36
62632;BME280;48703;51.248;-0.546;2022-10-16T05:16:53;100332;;;10.23;83.42
62632;BME280;48703;51.248;-0.546;2022-10-16T05:19:55;100338;;;10.19;83.31
62632;BME280;48703;51.248;-0.546;2022-10-16T05:22:57;100345;;;10.16;83.38
62632;BME280;48703;51.248;-0.546;2022-10-16T05:25:59;100345;;;10.13;83.28
62632;BME280;48703;51.248;-0.546;2022-10-16T05:29:00;100348;;;10.07;83.38
62632;BME280;48703;51.248;-0.546;2022-10-16T05:32:02;100353;;;10.05;83.30
62632;BME280;48703;51.248;-0.546;2022-10-16T05:35:04;100353;;;10.03;83.38
62632;BME280;48703;51.248;-0.546;2022-10-16T05:38:06;100352;;;10.00;83.40
62632;BME280;48703;51.248;-0.546;2022-10-16T05:41:10;100355;;;9.98;83.31
62632;BME280;48703;51.248;-0.546;2022-10-16T05:44:10;100357;;;9.97;83.49
62632;BME280;48703;51.248;-0.546;2022-10-16T05:47:12;100359;;;9.96;83.55
62632;BME280;48703;51.248;-0.546;2022-10-16T05:50:14;100365;;;9.93;83.38
62632;BME280;48703;51.248;-0.546;2022-10-16T05:53:15;100371;;;9.92;83.48
62632;BME280;48703;51.248;-0.546;2022-10-16T05:56:17;100378;;;9.90;83.44
62632;BME280;48703;51.248;-0.546;2022-10-16T05:59:19;100382;;;9.91;83.45
62632;BME280;48703;51.248;-0.546;2022-10-16T06:02:21;100389;;;9.92;83.47
62632;BME280;48703;51.248;-0.546;2022-10-16T06:05:23;100392;;;9.90;83.58
62632;BME280;48703;51.248;-0.546;2022-10-16T06:08:25;100392;;;9.89;83.70
62632;BME280;48703;51.248;-0.546;2022-10-16T06:11:27;100391;;;9.89;83.68
62632;BME280;48703;51.248;-0.546;2022-10-16T06:14:28;100390;;;9.88;83.69
62632;BME280;48703;51.248;-0.546;2022-10-16T06:17:30;100387;;;9.88;83.69
62632;BME280;48703;51.248;-0.546;2022-10-16T06:20:32;100388;;;9.89;83.82
62632;BME280;48703;51.248;-0.546;2022-10-16T06:23:34;100388;;;9.90;83.65
62632;BME280;48703;51.248;-0.546;2022-10-16T06:26:36;100397;;;9.92;83.58
62632;BME280;48703;51.248;-0.546;2022-10-16T06:29:38;100399;;;9.94;83.52
62632;BME280;48703;51.248;-0.546;2022-10-16T06:32:39;100399;;;9.95;83.41
62632;BME280;48703;51.248;-0.546;2022-10-16T06:35:41;100397;;;9.96;83.37
62632;BME280;48703;51.248;-0.546;2022-10-16T06:38:43;100397;;;9.97;83.45
62632;BME280;48703;51.248;-0.546;2022-10-16T06:41:45;100400;;;9.96;83.37
62632;BME280;48703;51.248;-0.546;2022-10-16T06:44:47;100407;;;9.96;83.27
62632;BME280;48703;51.248;-0.546;2022-10-16T06:47:49;100413;;;9.97;83.12
62632;BME280;48703;51.248;-0.546;2022-10-16T06:50:58;100419;;;9.98;83.11
62632;BME280;48703;51.248;-0.546;2022-10-16T06:53:53;100424;;;9.99;83.10
62632;BME280;48703;51.248;-0.546;2022-10-16T06:56:54;100429;;;9.99;83.11
62632;BME280;48703;51.248;-0.546;2022-10-16T06:59:56;100438;;;9.98;83.32
62632;BME280;48703;51.248;-0.546;2022-10-16T07:02:58;100444;;;9.97;83.44
62632;BME280;48703;51.248;-0.546;2022-10-16T07:06:01;100447;;;9.95;83.59
62632;BME280;48703;51.248;-0.546;2022-10-16T07:09:03;100455;;;9.93;83.55
62632;BME280;48703;51.248;-0.546;2022-10-16T07:12:04;100459;;;9.92;83.66
62632;BME280;48703;51.248;-0.546;2022-10-16T07:15:06;100461;;;9.91;83.61
62632;BME280;48703;51.248;-0.546;2022-10-16T07:18:07;100465;;;9.91;83.75
62632;BME280;48703;51.248;-0.546;2022-10-16T07:21:10;100466;;;9.92;83.88
62632;BME280;48703;51.248;-0.546;2022-10-16T07:24:12;100472;;;9.92;83.92
62632;BME280;48703;51.248;-0.546;2022-10-16T07:27:13;100475;;;9.93;83.84
62632;BME280;48703;51.248;-0.546;2022-10-16T07:30:15;100479;;;9.94;83.93
62632;BME280;48703;51.248;-0.546;2022-10-16T07:33:17;100486;;;9.96;83.82
62632;BME280;48703;51.248;-0.546;2022-10-16T07:36:19;100492;;;9.96;83.82
62632;BME280;48703;51.248;-0.546;2022-10-16T07:39:20;100498;;;9.96;83.83
62632;BME280;48703;51.248;-0.546;2022-10-16T07:42:22;100504;;;9.96;83.85
62632;BME280;48703;51.248;-0.546;2022-10-16T07:45:24;100507;;;9.96;83.79
62632;BME280;48703;51.248;-0.546;2022-10-16T07:48:26;100511;;;9.95;83.83
62632;BME280;48703;51.248;-0.546;2022-10-16T07:51:28;100513;;;9.94;83.86
62632;BME280;48703;51.248;-0.546;2022-10-16T07:54:30;100513;;;9.92;83.94
62632;BME280;48703;51.248;-0.546;2022-10-16T07:57:32;100516;;;9.93;84.24
62632;BME280;48703;51.248;-0.546;2022-10-16T08:00:35;100513;;;9.93;84.34
62632;BME280;48703;51.248;-0.546;2022-10-16T08:03:36;100513;;;9.94;84.34
62632;BME280;48703;51.248;-0.546;2022-10-16T08:06:38;100518;;;9.96;84.30
62632;BME280;48703;51.248;-0.546;2022-10-16T08:09:39;100524;;;9.99;84.21
62632;BME280;48703;51.248;-0.546;2022-10-16T08:12:41;100533;;;10.03;84.40
62632;BME280;48703;51.248;-0.546;2022-10-16T08:15:43;100539;;;10.06;84.42
62632;BME280;48703;51.248;-0.546;2022-10-16T08:18:45;100541;;;10.10;84.48
62632;BME280;48703;51.248;-0.546;2022-10-16T08:21:47;100545;;;10.13;84.56
62632;BME280;48703;51.248;-0.546;2022-10-16T08:24:48;100551;;;10.17;84.43
62632;BME280;48703;51.248;-0.546;2022-10-16T08:27:50;100556;;;10.21;84.29
62632;BME280;48703;51.248;-0.546;2022-10-16T08:30:52;100563;;;10.25;84.09
62632;BME280;48703;51.248;-0.546;2022-10-16T08:33:54;100563;;;10.29;83.97
62632;BME280;48703;51.248;-0.546;2022-10-16T08:36:56;100565;;;10.33;84.11
62632;BME280;48703;51.248;-0.546;2022-10-16T08:39:58;100571;;;10.36;84.00
62632;BME280;48703;51.248;-0.546;2022-10-16T08:43:04;100573;;;10.41;84.00
62632;BME280;48703;51.248;-0.546;2022-10-16T08:46:08;100576;;;10.44;83.89
62632;BME280;48703;51.248;-0.546;2022-10-16T08:49:03;100577;;;10.48;84.25
62632;BME280;48703;51.248;-0.546;2022-10-16T08:52:08;100581;;;10.52;84.57
62632;BME280;48703;51.248;-0.546;2022-10-16T08:55:09;100587;;;10.55;84.69
62632;BME280;48703;51.248;-0.546;2022-10-16T08:58:10;100592;;;10.57;84.58
62632;BME280;48703;51.248;-0.546;2022-10-16T09:01:12;100599;;;10.59;84.53
62632;BME280;48703;51.248;-0.546;2022-10-16T09:04:28;100600;;;10.63;84.61
62632;BME280;48703;51.248;-0.546;2022-10-16T09:07:16;100601;;;10.66;84.37
62632;BME280;48703;51.248;-0.546;2022-10-16T09:10:20;100601;;;10.68;84.20
62632;BME280;48703;51.248;-0.546;2022-10-16T09:13:20;100604;;;10.70;84.42
62632;BME280;48703;51.248;-0.546;2022-10-16T09:16:22;100609;;;10.72;84.22
62632;BME280;48703;51.248;-0.546;2022-10-16T09:19:25;100609;;;10.78;84.50
62632;BME280;48703;51.248;-0.546;2022-10-16T09:22:27;100608;;;10.83;84.35
62632;BME280;48703;51.248;-0.546;2022-10-16T09:25:26;100607;;;10.89;85.33
62632;BME280;48703;51.248;-0.546;2022-10-16T09:28:27;100605;;;10.95;83.95
62632;BME280;48703;51.248;-0.546;2022-10-16T09:31:29;100604;;;10.99;83.81
62632;BME280;48703;51.248;-0.546;2022-10-16T09:34:32;100607;;;11.03;84.08
62632;BME280;48703;51.248;-0.546;2022-10-16T09:37:33;100613;;;11.06;84.23
62632;BME280;48703;51.248;-0.546;2022-10-16T09:40:35;100620;;;11.07;83.45
62632;BME280;48703;51.248;-0.546;2022-10-16T09:43:38;100629;;;11.08;83.08
62632;BME280;48703;51.248;-0.546;2022-10-16T09:46:39;100634;;;11.10;83.51
62632;BME280;48703;51.248;-0.546;2022-10-16T09:49:49;100636;;;11.12;83.88
62632;BME280;48703;51.248;-0.546;2022-10-16T09:52:42;100637;;;11.12;83.93
62632;BME280;48703;51.248;-0.546;2022-10-16T09:55:48;100637;;;11.15;83.87
62632;BME280;48703;51.248;-0.546;2022-10-16T09:58:49;100639;;;11.19;84.19
62632;BME280;48703;51.248;-0.546;2022-10-16T10:01:50;100643;;;11.25;83.75
62632;BME280;48703;51.248;-0.546;2022-10-16T10:04:50;100648;;;11.28;83.83
62632;BME280;48703;51.248;-0.546;2022-10-16T10:07:54;100644;;;11.32;83.40
62632;BME280;48703;51.248;-0.546;2022-10-16T10:10:53;100640;;;11.35;83.74
62632;BME280;48703;51.248;-0.546;2022-10-16T10:14:03;100645;;;11.39;83.24
62632;BME280;48703;51.248;-0.546;2022-10-16T10:17:14;100642;;;11.44;83.34
62632;BME280;48703;51.248;-0.546;2022-10-16T10:20:00;100642;;;11.48;82.26
62632;BME280;48703;51.248;-0.546;2022-10-16T10:23:13;100641;;;11.53;82.40
62632;BME280;48703;51.248;-0.546;2022-10-16T10:26:04;100640;;;11.57;81.59
62632;BME280;48703;51.248;-0.546;2022-10-16T10:29:05;100639;;;11.62;81.67
62632;BME280;48703;51.248;-0.546;2022-10-16T10:32:10;100640;;;11.67;81.54
62632;BME280;48703;51.248;-0.546;2022-10-16T10:35:13;100640;;;11.73;81.69
62632;BME280;48703;51.248;-0.546;2022-10-16T10:38:16;100639;;;11.78;80.37
62632;BME280;48703;51.248;-0.546;2022-10-16T10:41:20;100640;;;11.85;79.37
62632;BME280;48703;51.248;-0.546;2022-10-16T10:44:16;100642;;;11.94;79.63
62632;BME280;48703;51.248;-0.546;2022-10-16T10:47:17;100642;;;12.02;78.29
62632;BME280;48703;51.248;-0.546;2022-10-16T10:50:20;100643;;;12.09;76.66
62632;BME280;48703;51.248;-0.546;2022-10-16T10:53:24;100633;;;12.17;77.37
62632;BME280;48703;51.248;-0.546;2022-10-16T10:56:24;100628;;;12.25;77.43
62632;BME280;48703;51.248;-0.546;2022-10-16T10:59:32;100626;;;12.33;76.69
62632;BME280;48703;51.248;-0.546;2022-10-16T11:02:26;100629;;;12.38;75.90
62632;BME280;48703;51.248;-0.546;2022-10-16T11:05:28;100631;;;12.43;77.02
62632;BME280;48703;51.248;-0.546;2022-10-16T11:08:31;100629;;;12.47;78.33
62632;BME280;48703;51.248;-0.546;2022-10-16T11:11:32;100627;;;12.53;78.00
62632;BME280;48703;51.248;-0.546;2022-10-16T11:14:34;100623;;;12.56;77.53
62632;BME280;48703;51.248;-0.546;2022-10-16T11:17:35;100620;;;12.60;77.52
62632;BME280;48703;51.248;-0.546;2022-10-16T11:20:37;100620;;;12.64;76.42
62632;BME280;48703;51.248;-0.546;2022-10-16T11:23:40;100619;;;12.68;75.40
62632;BME280;48703;51.248;-0.546;2022-10-16T11:26:41;100616;;;12.73;74.79
62632;BME280;48703;51.248;-0.546;2022-10-16T11:29:44;100613;;;12.80;73.37
62632;BME280;48703;51.248;-0.546;2022-10-16T11:32:49;100607;;;12.86;74.90
62632;BME280;48703;51.248;-0.546;2022-10-16T11:35:47;100618;;;12.89;76.50
62632;BME280;48703;51.248;-0.546;2022-10-16T11:38:49;100616;;;12.91;77.11
62632;BME280;48703;51.248;-0.546;2022-10-16T11:41:50;100614;;;12.95;78.19
62632;BME280;48703;51.248;-0.546;2022-10-16T11:44:52;100610;;;12.97;77.35
62632;BME280;48703;51.248;-0.546;2022-10-16T11:47:54;100612;;;13.02;77.43
62632;BME280;48703;51.248;-0.546;2022-10-16T11:50:56;100609;;;13.08;78.23
62632;BME280;48703;51.248;-0.546;2022-10-16T11:53:57;100609;;;13.16;78.53
62632;BME280;48703;51.248;-0.546;2022-10-16T11:56:59;100614;;;13.25;78.13
62632;BME280;48703;51.248;-0.546;2022-10-16T12:00:01;100619;;;13.34;78.77
62632;BME280;48703;51.248;-0.546;2022-10-16T12:03:03;100615;;;13.41;77.91
62632;BME280;48703;51.248;-0.546;2022-10-16T12:06:10;100609;;;13.48;78.25
62632;BME280;48703;51.248;-0.546;2022-10-16T12:09:09;100614;;;13.53;77.45
62632;BME280;48703;51.248;-0.546;2022-10-16T12:12:23;100606;;;13.59;77.60
62632;BME280;48703;51.248;-0.546;2022-10-16T12:15:26;100599;;;13.66;77.13
62632;BME280;48703;51.248;-0.546;2022-10-16T12:18:20;100595;;;13.73;77.09
62632;BME280;48703;51.248;-0.546;2022-10-16T12:21:14;100594;;;13.80;77.53
62632;BME280;48703;51.248;-0.546;2022-10-16T12:24:32;100592;;;13.86;77.12
62632;BME280;48703;51.248;-0.546;2022-10-16T12:27:21;100586;;;13.92;77.48
62632;BME280;48703;51.248;-0.546;2022-10-16T12:30:20;100587;;;13.96;77.29
62632;BME280;48703;51.248;-0.546;2022-10-16T12:33:21;100590;;;14.00;77.04
62632;BME280;48703;51.248;-0.546;2022-10-16T12:36:26;100588;;;14.01;77.20
62632;BME280;48703;51.248;-0.546;2022-10-16T12:39:25;100585;;;14.02;76.24
62632;BME280;48703;51.248;-0.546;2022-10-16T12:42:31;100583;;;14.03;76.31
62632;BME280;48703;51.248;-0.546;2022-10-16T12:45:29;100585;;;14.05;76.24
62632;BME280;48703;51.248;-0.546;2022-10-16T12:48:30;100588;;;14.06;75.86
62632;BME280;48703;51.248;-0.546;2022-10-16T12:51:34;100589;;;14.08;75.23
62632;BME280;48703;51.248;-0.546;2022-10-16T12:54:35;100589;;;14.11;75.53
62632;BME280;48703;51.248;-0.546;2022-10-16T12:57:39;100592;;;14.13;75.98
62632;BME280;48703;51.248;-0.546;2022-10-16T13:00:40;100594;;;14.16;75.68
62632;BME280;48703;51.248;-0.546;2022-10-16T13:03:44;100594;;;14.19;76.36
62632;BME280;48703;51.248;-0.546;2022-10-16T13:06:43;100589;;;14.21;76.57
62632;BME280;48703;51.248;-0.546;2022-10-16T13:09:46;100582;;;14.23;76.23
62632;BME280;48703;51.248;-0.546;2022-10-16T13:12:51;100578;;;14.23;75.07
62632;BME280;48703;51.248;-0.546;2022-10-16T13:15:50;100586;;;14.23;75.13
62632;BME280;48703;51.248;-0.546;2022-10-16T13:18:51;100590;;;14.24;75.06
62632;BME280;48703;51.248;-0.546;2022-10-16T13:21:52;100588;;;14.25;75.13
62632;BME280;48703;51.248;-0.546;2022-10-16T13:24:56;100589;;;14.25;75.38
62632;BME280;48703;51.248;-0.546;2022-10-16T13:27:55;100587;;;14.26;75.14
62632;BME280;48703;51.248;-0.546;2022-10-16T13:30:57;100576;;;14.28;75.55
62632;BME280;48703;51.248;-0.546;2022-10-16T13:33:58;100575;;;14.31;75.54
62632;BME280;48703;51.248;-0.546;2022-10-16T13:37:00;100574;;;14.34;75.73
62632;BME280;48703;51.248;-0.546;2022-10-16T13:40:04;100574;;;14.37;75.76
62632;BME280;48703;51.248;-0.546;2022-10-16T13:43:04;100570;;;14.39;75.54
62632;BME280;48703;51.248;-0.546;2022-10-16T13:46:06;100579;;;14.41;75.36
62632;BME280;48703;51.248;-0.546;2022-10-16T13:49:11;100581;;;14.43;75.87
62632;BME280;48703;51.248;-0.546;2022-10-16T13:52:15;100574;;;14.46;75.70
62632;BME280;48703;51.248;-0.546;2022-10-16T13:55:11;100572;;;14.48;75.60
62632;BME280;48703;51.248;-0.546;2022-10-16T13:58:16;100578;;;14.50;75.46
62632;BME280;48703;51.248;-0.546;2022-10-16T14:01:16;100580;;;14.52;75.96
62632;BME280;48703;51.248;-0.546;2022-10-16T14:04:17;100575;;;14.54;75.99
62632;BME280;48703;51.248;-0.546;2022-10-16T14:07:20;100570;;;14.55;76.04
62632;BME280;48703;51.248;-0.546;2022-10-16T14:10:22;100563;;;14.56;75.69
62632;BME280;48703;51.248;-0.546;2022-10-16T14:13:26;100558;;;14.58;76.01
62632;BME280;48703;51.248;-0.546;2022-10-16T14:16:25;100556;;;14.59;75.87
62632;BME280;48703;51.248;-0.546;2022-10-16T14:19:26;100559;;;14.60;75.94
62632;BME280;48703;51.248;-0.546;2022-10-16T14:22:29;100558;;;14.61;76.16
62632;BME280;48703;51.248;-0.546;2022-10-16T14:25:30;100563;;;14.63;76.90
62632;BME280;48703;51.248;-0.546;2022-10-16T14:28:31;100560;;;14.64;75.99
62632;BME280;48703;51.248;-0.546;2022-10-16T14:31:33;100556;;;14.64;75.66
62632;BME280;48703;51.248;-0.546;2022-10-16T14:34:36;100560;;;14.64;75.82
62632;BME280;48703;51.248;-0.546;2022-10-16T14:37:37;100565;;;14.64;75.86
62632;BME280;48703;51.248;-0.546;2022-10-16T14:40:45;100568;;;14.64;76.48
62632;BME280;48703;51.248;-0.546;2022-10-16T14:43:42;100565;;;14.63;76.20
62632;BME280;48703;51.248;-0.546;2022-10-16T14:46:43;100566;;;14.62;76.80
62632;BME280;48703;51.248;-0.546;2022-10-16T14:49:45;100569;;;14.60;76.56
62632;BME280;48703;51.248;-0.546;2022-10-16T14:52:46;100570;;;14.60;76.77
62632;BME280;48703;51.248;-0.546;2022-10-16T14:55:48;100569;;;14.58;76.43
62632;BME280;48703;51.248;-0.546;2022-10-16T14:58:51;100566;;;14.56;76.50
62632;BME280;48703;51.248;-0.546;2022-10-16T15:01:52;100567;;;14.55;76.59
62632;BME280;48703;51.248;-0.546;2022-10-16T15:04:54;100562;;;14.53;76.60
62632;BME280;48703;51.248;-0.546;2022-10-16T15:07:56;100555;;;14.53;76.90
62632;BME280;48703;51.248;-0.546;2022-10-16T15:10:58;100553;;;14.52;77.05
62632;BME280;48703;51.248;-0.546;2022-10-16T15:13:59;100545;;;14.52;77.43
62632;BME280;48703;51.248;-0.546;2022-10-16T15:17:01;100540;;;14.50;77.23
62632;BME280;48703;51.248;-0.546;2022-10-16T15:20:04;100537;;;14.47;77.47
62632;BME280;48703;51.248;-0.546;2022-10-16T15:23:06;100534;;;14.46;77.40
62632;BME280;48703;51.248;-0.546;2022-10-16T15:26:07;100527;;;14.45;77.48
62632;BME280;48703;51.248;-0.546;2022-10-16T15:29:09;100525;;;14.44;77.87
62632;BME280;48703;51.248;-0.546;2022-10-16T15:32:11;100525;;;14.43;77.98
62632;BME280;48703;51.248;-0.546;2022-10-16T15:35:12;100523;;;14.41;78.04
62632;BME280;48703;51.248;-0.546;2022-10-16T15:38:15;100519;;;14.40;78.22
62632;BME280;48703;51.248;-0.546;2022-10-16T15:41:16;100519;;;14.39;78.49
62632;BME280;48703;51.248;-0.546;2022-10-16T15:44:18;100517;;;14.37;78.85
62632;BME280;48703;51.248;-0.546;2022-10-16T15:47:20;100515;;;14.36;78.98
62632;BME280;48703;51.248;-0.546;2022-10-16T15:50:22;100512;;;14.35;78.93
62632;BME280;48703;51.248;-0.546;2022-10-16T15:53:24;100494;;;14.34;79.38
62632;BME280;48703;51.248;-0.546;2022-10-16T15:56:25;100493;;;14.32;79.37
62632;BME280;48703;51.248;-0.546;2022-10-16T15:59:27;100492;;;14.31;79.45
62632;BME280;48703;51.248;-0.546;2022-10-16T16:02:29;100495;;;14.30;79.60
62632;BME280;48703;51.248;-0.546;2022-10-16T16:05:31;100494;;;14.29;79.72
62632;BME280;48703;51.248;-0.546;2022-10-16T16:08:33;100489;;;14.28;79.94
62632;BME280;48703;51.248;-0.546;2022-10-16T16:11:35;100469;;;14.26;80.03
62632;BME280;48703;51.248;-0.546;2022-10-16T16:14:37;100453;;;14.26;80.23
62632;BME280;48703;51.248;-0.546;2022-10-16T16:17:38;100470;;;14.25;80.33